Time;durP1;ratioP1;P1;durP2;ratioP2;P2;SDS_P1;SDS_P2;PMS_P1;PMS_P2;Temp;Humidity;BMP_temperature;BMP_pressure;BME280_temperature;BME280_humidity;BME280_pressure;Samples;Min_cycle;Max_cycle;Signal;HPM_P1;HPM_P2
2023/01/08 00:04:16;;;;;;;5.47;2.83;;;;;;;-15.73;70.08;102461.97;10400335;28;20034;-76
2023/01/08 00:09:19;;;;;;;6.05;3.30;;;;;;;-15.68;69.64;102462.63;10405707;28;20054;-76
2023/01/08 00:14:21;;;;;;;10.95;6.18;;;;;;;-15.75;69.68;102470.84;10403381;28;20033;-77
2023/01/08 00:19:24;;;;;;;10.50;6.50;;;;;;;-15.89;69.99;102456.53;10388624;28;20045;-76
2023/01/08 00:24:27;;;;;;;11.98;6.55;;;;;;;-15.98;70.60;102441.13;10406135;28;20041;-76
2023/01/08 00:29:33;;;;;;;11.27;6.10;;;;;;;-16.04;71.67;102435.31;10416129;28;20060;-76
2023/01/08 00:34:35;;;;;;;10.35;6.57;;;;;;;-16.07;71.14;102433.66;10405170;28;20038;-77
2023/01/08 00:39:42;;;;;;;9.65;5.22;;;;;;;-16.12;71.53;102424.28;10401916;28;20123;-77
2023/01/08 00:44:44;;;;;;;9.70;4.80;;;;;;;-16.19;71.74;102424.53;10442913;28;20057;-75
2023/01/08 00:49:46;;;;;;;9.82;5.03;;;;;;;-16.08;70.70;102428.47;10443301;28;20037;-76
2023/01/08 00:54:49;;;;;;;11.15;6.10;;;;;;;-16.11;71.19;102418.94;10441508;28;20049;-75
2023/01/08 00:59:51;;;;;;;14.75;6.38;;;;;;;-16.19;71.32;102419.25;10443288;28;20419;-75
2023/01/08 01:04:53;;;;;;;15.43;6.45;;;;;;;-16.24;70.46;102415.97;10435044;28;20037;-77
2023/01/08 01:10:00;;;;;;;13.48;5.97;;;;;;;-16.25;70.28;102424.78;10444919;28;20038;-76
2023/01/08 01:15:08;;;;;;;12.82;6.68;;;;;;;-16.25;70.68;102429.19;10444343;28;20052;-76
2023/01/08 01:20:14;;;;;;;13.50;6.60;;;;;;;-16.29;70.13;102423.22;10462288;28;20041;-76
2023/01/08 01:25:16;;;;;;;13.10;5.95;;;;;;;-16.46;70.04;102437.06;10443230;28;20045;-76
2023/01/08 01:30:19;;;;;;;13.48;5.75;;;;;;;-16.57;70.17;102426.13;10444374;28;20056;-76
2023/01/08 01:35:21;;;;;;;11.98;5.63;;;;;;;-16.78;69.68;102413.91;10445647;28;20042;-75
2023/01/08 01:40:23;;;;;;;10.45;5.13;;;;;;;-16.88;70.86;102423.91;10441495;28;20050;-75
2023/01/08 01:45:26;;;;;;;10.77;4.72;;;;;;;-16.97;71.62;102420.81;10443315;28;20126;-76
2023/01/08 01:50:32;;;;;;;8.30;4.57;;;;;;;-17.05;70.96;102426.38;10443855;28;20116;-76
2023/01/08 01:55:37;;;;;;;9.07;4.72;;;;;;;-17.05;71.69;102421.13;10421410;28;20512;-75
2023/01/08 02:00:40;;;;;;;9.50;4.10;;;;;;;-16.97;71.68;102419.06;10404014;28;20399;-75
2023/01/08 02:06:07;;;;;;;9.55;4.78;;;;;;;-16.95;71.46;102411.97;10408063;28;20076;-76
2023/01/08 02:11:31;;;;;;;8.23;4.30;;;;;;;-16.85;71.98;102402.78;10441456;28;20045;-75
2023/01/08 02:17:02;;;;;;;6.40;3.75;;;;;;;-16.76;72.22;102404.22;10408966;28;20507;-75
2023/01/08 02:22:08;;;;;;;7.50;4.47;;;;;;;-16.77;72.34;102403.34;10413623;28;20045;-77
2023/01/08 02:27:12;;;;;;;9.25;4.60;;;;;;;-16.92;72.59;102390.00;10426051;28;20045;-75
2023/01/08 02:32:15;;;;;;;9.70;4.53;;;;;;;-17.00;72.23;102390.31;10421474;28;20044;-77
2023/01/08 02:37:17;;;;;;;8.48;4.15;;;;;;;-17.04;72.52;102372.94;10434606;28;20136;-77
2023/01/08 02:42:44;;;;;;;10.48;4.72;;;;;;;-17.00;72.44;102381.59;10432340;28;20048;-76
2023/01/08 02:47:49;;;;;;;9.85;4.90;;;;;;;-17.08;72.58;102390.59;10428651;28;20052;-77
2023/01/08 02:53:18;;;;;;;10.32;4.88;;;;;;;-17.11;73.21;102380.22;10431433;28;20045;-76
2023/01/08 02:58:21;;;;;;;10.07;5.30;;;;;;;-17.14;73.50;102369.84;10444401;28;20046;-75
2023/01/08 03:03:26;;;;;;;9.77;5.28;;;;;;;-17.17;73.69;102358.63;10421594;28;20045;-75
2023/01/08 03:08:28;;;;;;;10.27;4.95;;;;;;;-17.21;73.02;102359.66;10419307;28;20076;-76
2023/01/08 03:14:08;;;;;;;11.18;4.68;;;;;;;-17.21;74.05;102341.28;10428743;28;20033;-75
2023/01/08 03:19:15;;;;;;;9.55;4.65;;;;;;;-17.22;73.92;102356.19;10421564;28;20053;-77
2023/01/08 03:24:25;;;;;;;13.18;5.60;;;;;;;-17.24;73.51;102354.53;10429698;28;20048;-77
2023/01/08 03:29:27;;;;;;;10.25;4.65;;;;;;;-17.27;73.72;102336.28;10428796;28;20042;-75
2023/01/08 03:34:31;;;;;;;11.35;4.88;;;;;;;-17.27;73.41;102341.53;10447289;28;20037;-75
2023/01/08 03:39:43;;;;;;;11.48;5.35;;;;;;;-17.32;73.30;102333.88;10444445;28;20063;-74
2023/01/08 03:44:45;;;;;;;13.57;5.75;;;;;;;-17.46;73.60;102337.03;10438048;28;20045;-76
2023/01/08 03:49:49;;;;;;;10.90;4.78;;;;;;;-17.54;73.72;102339.06;10416618;28;20041;-76
2023/01/08 03:54:51;;;;;;;10.10;3.90;;;;;;;-17.45;73.15;102341.34;10429468;28;20412;-77
2023/01/08 03:59:54;;;;;;;10.30;4.15;;;;;;;-17.51;73.68;102332.88;10428032;28;20115;-75
2023/01/08 04:04:56;;;;;;;11.40;5.28;;;;;;;-17.55;73.71;102340.00;10448437;28;20380;-76
2023/01/08 04:09:59;;;;;;;15.18;5.00;;;;;;;-17.55;73.89;102324.25;10443269;28;20049;-76
2023/01/08 04:15:01;;;;;;;11.52;5.55;;;;;;;-17.57;73.48;102335.72;10445471;28;20044;-76
2023/01/08 04:20:05;;;;;;;11.80;5.65;;;;;;;-17.55;74.20;102320.78;10445294;28;20033;-76
2023/01/08 04:25:07;;;;;;;11.60;5.07;;;;;;;-17.56;73.54;102309.44;10412858;28;20034;-76
2023/01/08 04:30:11;;;;;;;11.00;4.90;;;;;;;-17.51;73.88;102304.88;10445171;28;20053;-78
2023/01/08 04:35:13;;;;;;;10.68;5.15;;;;;;;-17.51;73.89;102306.66;10445013;28;20049;-74
2023/01/08 04:40:15;;;;;;;11.65;4.82;;;;;;;-17.47;74.33;102308.22;10442644;28;20064;-75
2023/01/08 04:45:18;;;;;;;12.00;5.38;;;;;;;-17.41;74.15;102303.59;10425158;28;20039;-76
2023/01/08 04:50:20;;;;;;;14.93;6.32;;;;;;;-17.42;74.55;102303.66;10441630;28;20041;-75
2023/01/08 04:55:22;;;;;;;12.48;5.60;;;;;;;-17.41;74.40;102292.25;10407272;28;20049;-76
2023/01/08 05:00:24;;;;;;;10.02;5.75;;;;;;;-17.44;74.33;102298.47;10441804;28;20057;-77
2023/01/08 05:05:27;;;;;;;12.27;4.07;;;;;;;-17.35;73.78;102302.50;10435159;28;20535;-77
2023/01/08 05:10:29;;;;;;;13.93;6.38;;;;;;;-17.40;73.92;102309.69;10435756;28;20037;-75
2023/01/08 05:15:37;;;;;;;10.65;4.85;;;;;;;-17.45;74.24;102298.53;10441149;28;20033;-76
2023/01/08 05:21:04;;;;;;;16.67;6.10;;;;;;;-17.47;73.81;102288.09;10444368;28;20049;-76
2023/01/08 05:26:06;;;;;;;12.88;6.32;;;;;;;-17.38;74.41;102286.88;10432059;28;20516;-75
2023/01/08 05:31:10;;;;;;;13.73;5.95;;;;;;;-17.37;74.07;102286.81;10436710;28;20508;-75
2023/01/08 05:36:12;;;;;;;14.23;6.10;;;;;;;-17.37;74.45;102278.09;10437545;28;20057;-77
2023/01/08 05:41:15;;;;;;;14.25;6.22;;;;;;;-17.28;74.86;102277.72;10401286;28;20049;-77
2023/01/08 05:46:22;;;;;;;16.35;6.07;;;;;;;-17.28;74.86;102284.75;10429977;28;20417;-75
2023/01/08 05:51:25;;;;;;;16.50;6.43;;;;;;;-17.31;75.11;102290.97;10440204;28;20056;-75
2023/01/08 05:56:27;;;;;;;13.52;6.85;;;;;;;-17.30;75.05;102307.56;10453516;28;20038;-76
2023/01/08 06:01:30;;;;;;;15.80;5.72;;;;;;;-17.26;75.24;102311.75;10441241;28;20056;-76
2023/01/08 06:06:32;;;;;;;11.80;5.45;;;;;;;-17.27;75.60;102308.28;10430999;28;20038;-75
2023/01/08 06:11:34;;;;;;;15.63;7.50;;;;;;;-17.23;75.03;102316.88;10438627;28;20516;-74
2023/01/08 06:16:36;;;;;;;19.83;7.53;;;;;;;-17.24;75.50;102312.56;10440012;28;20053;-75
2023/01/08 06:21:39;;;;;;;17.80;8.55;;;;;;;-17.25;75.83;102309.06;10441749;28;20451;-75
2023/01/08 06:26:41;;;;;;;17.35;7.80;;;;;;;-17.21;75.92;102288.81;10440880;28;20056;-73
2023/01/08 06:31:44;;;;;;;19.30;8.18;;;;;;;-17.14;76.28;102274.53;10439098;28;20044;-75
2023/01/08 06:36:51;;;;;;;15.30;6.43;;;;;;;-17.07;76.06;102276.84;10442730;28;20060;-75
2023/01/08 06:41:54;;;;;;;16.85;6.65;;;;;;;-17.02;76.35;102267.91;10442768;28;20049;-75
2023/01/08 06:46:56;;;;;;;9.70;4.90;;;;;;;-16.97;76.22;102276.47;10443020;28;20042;-75
2023/01/08 06:51:58;;;;;;;13.80;6.78;;;;;;;-16.95;76.74;102270.22;10443376;28;20038;-75
2023/01/08 06:57:00;;;;;;;15.63;5.30;;;;;;;-16.86;75.85;102266.34;10413347;28;20046;-74
2023/01/08 07:02:03;;;;;;;17.23;7.03;;;;;;;-16.84;76.69;102272.38;10421660;28;20041;-75
2023/01/08 07:07:05;;;;;;;15.27;6.10;;;;;;;-16.77;75.92;102282.56;10440317;28;20045;-74
2023/01/08 07:12:12;;;;;;;16.02;7.60;;;;;;;-16.77;75.98;102290.44;10436993;28;20038;-75
2023/01/08 07:17:14;;;;;;;22.27;8.20;;;;;;;-16.83;76.30;102277.59;10422316;28;20033;-75
2023/01/08 07:22:17;;;;;;;15.82;7.20;;;;;;;-16.81;76.25;102269.66;10440963;28;20041;-74
2023/01/08 07:27:23;;;;;;;16.83;7.45;;;;;;;-16.73;76.01;102253.56;10447980;28;20053;-75
2023/01/08 07:32:25;;;;;;;11.20;4.40;;;;;;;-16.79;76.28;102255.53;10428818;28;20049;-74
2023/01/08 07:37:27;;;;;;;12.25;5.72;;;;;;;-16.78;75.91;102259.84;10430431;28;20064;-74
2023/01/08 07:42:30;;;;;;;16.30;6.35;;;;;;;-16.83;74.97;102240.84;10444368;28;20056;-75
2023/01/08 07:47:32;;;;;;;14.65;6.93;;;;;;;-16.90;75.56;102254.28;10457282;28;20045;-73
2023/01/08 07:52:35;;;;;;;16.85;6.97;;;;;;;-16.91;74.83;102261.28;10445273;28;20049;-74
2023/01/08 07:57:41;;;;;;;16.75;6.43;;;;;;;-16.87;74.69;102246.25;10447330;28;20046;-74
2023/01/08 08:02:48;;;;;;;14.35;5.47;;;;;;;-16.97;75.30;102255.47;10445306;28;20041;-75
2023/01/08 08:07:50;;;;;;;11.13;5.22;;;;;;;-16.98;75.28;102259.00;10431736;28;20057;-74
2023/01/08 08:12:52;;;;;;;13.68;5.80;;;;;;;-16.99;75.37;102252.06;10428582;28;20049;-75
2023/01/08 08:17:54;;;;;;;12.93;5.55;;;;;;;-17.00;74.72;102261.69;10444697;28;20052;-75
2023/01/08 08:23:09;;;;;;;13.57;4.93;;;;;;;-17.05;74.97;102252.28;10439644;28;20056;-74
2023/01/08 08:28:37;;;;;;;10.55;4.82;;;;;;;-16.99;74.87;102242.41;10428153;28;20038;-74
2023/01/08 08:33:39;;;;;;;10.18;4.88;;;;;;;-16.87;75.10;102251.50;10445046;28;20045;-73
2023/01/08 08:38:41;;;;;;;11.20;4.38;;;;;;;-16.68;74.43;102247.16;10443028;28;20519;-75
2023/01/08 08:43:50;;;;;;;11.57;6.43;;;;;;;-16.60;74.86;102270.44;10404321;28;20390;-74
2023/01/08 08:48:52;;;;;;;13.95;5.10;;;;;;;-16.56;74.71;102261.50;10434907;28;20388;-75
2023/01/08 08:54:23;;;;;;;13.10;5.93;;;;;;;-16.55;74.39;102258.81;10443513;28;20048;-76
2023/01/08 08:59:26;;;;;;;11.43;5.80;;;;;;;-16.51;74.03;102264.78;10443764;28;20048;-76
2023/01/08 09:04:33;;;;;;;14.52;5.57;;;;;;;-16.46;74.57;102250.53;10442644;28;20044;-75
2023/01/08 09:09:35;;;;;;;12.13;4.50;;;;;;;-16.39;74.68;102253.75;10445411;28;20064;-74
2023/01/08 09:14:37;;;;;;;10.75;5.60;;;;;;;-16.30;73.96;102248.09;10426338;28;20535;-76
2023/01/08 09:19:45;;;;;;;11.73;5.80;;;;;;;-16.23;74.35;102241.63;10443410;28;20504;-75
2023/01/08 09:24:47;;;;;;;10.63;4.47;;;;;;;-16.18;74.11;102228.25;10440772;28;20162;-75
2023/01/08 09:29:49;;;;;;;7.35;4.07;;;;;;;-16.10;73.22;102233.19;10440771;28;20049;-75
2023/01/08 09:34:52;;;;;;;8.13;4.05;;;;;;;-16.11;73.07;102236.72;10442342;28;20049;-75
2023/01/08 09:39:54;;;;;;;10.85;5.10;;;;;;;-16.13;73.27;102233.31;10443712;28;20458;-77
2023/01/08 09:44:58;;;;;;;13.43;5.43;;;;;;;-16.11;73.08;102239.34;10445186;28;20526;-76
2023/01/08 09:50:02;;;;;;;11.05;5.05;;;;;;;-16.11;73.70;102242.00;10427061;28;20045;-76
2023/01/08 09:55:12;;;;;;;10.35;4.75;;;;;;;-16.08;73.66;102231.31;10414626;28;20041;-75
2023/01/08 10:00:20;;;;;;;11.80;5.07;;;;;;;-16.04;73.51;102219.75;10417296;28;20041;-76
2023/01/08 10:05:25;;;;;;;13.10;7.00;;;;;;;-15.96;74.29;102225.50;10430554;28;20046;-75
2023/01/08 10:10:29;;;;;;;9.30;5.07;;;;;;;-15.98;74.65;102208.91;10424798;28;20531;-77
2023/01/08 10:15:32;;;;;;;10.95;5.45;;;;;;;-15.95;74.54;102203.53;10414291;28;20033;-77
2023/01/08 10:20:34;;;;;;;10.25;5.30;;;;;;;-15.85;75.11;102191.66;10421658;28;20041;-77
2023/01/08 10:25:53;;;;;;;11.80;5.53;;;;;;;-15.76;74.64;102172.81;10439778;28;20033;-77
2023/01/08 10:31:05;;;;;;;13.05;5.93;;;;;;;-15.70;74.83;102190.06;10402789;28;20045;-76
2023/01/08 10:36:09;;;;;;;10.88;5.30;;;;;;;-15.62;75.76;102180.88;10438783;28;20039;-77
2023/01/08 10:41:12;;;;;;;12.13;5.13;;;;;;;-15.58;75.95;102176.28;10422234;28;20060;-76
2023/01/08 10:46:30;;;;;;;13.02;5.78;;;;;;;-15.52;75.95;102183.00;10438452;28;20041;-76
2023/01/08 10:51:33;;;;;;;11.32;5.80;;;;;;;-15.50;75.72;102165.38;10419121;28;20068;-76
2023/01/08 10:56:43;;;;;;;14.57;5.97;;;;;;;-15.41;75.79;102159.66;10425601;28;20041;-76
2023/01/08 11:01:50;;;;;;;12.98;4.13;;;;;;;-15.33;75.93;102184.66;10439134;28;20053;-76
2023/01/08 11:06:58;;;;;;;11.68;6.05;;;;;;;-15.30;75.99;102157.31;10426365;28;20038;-75
2023/01/08 11:12:00;;;;;;;9.17;5.00;;;;;;;-15.20;76.31;102155.94;10446736;28;20042;-78
2023/01/08 11:17:10;;;;;;;11.27;6.20;;;;;;;-15.12;75.87;102155.53;10406291;28;20473;-78
2023/01/08 11:22:24;;;;;;;8.68;4.22;;;;;;;-15.05;75.22;102155.16;10418899;28;20050;-78
2023/01/08 11:27:41;;;;;;;8.60;4.57;;;;;;;-14.98;75.48;102147.78;10431693;28;20033;-79
2023/01/08 11:33:08;;;;;;;10.32;5.18;;;;;;;-14.93;75.87;102158.91;10429188;28;20053;-78
2023/01/08 11:38:14;;;;;;;7.25;4.10;;;;;;;-14.91;76.17;102132.53;10417158;28;20041;-78
2023/01/08 11:43:39;;;;;;;8.40;4.65;;;;;;;-14.88;76.12;102156.06;10431315;28;20045;-80
2023/01/08 11:49:06;;;;;;;11.38;5.63;;;;;;;-14.89;75.80;102154.34;10418916;28;20029;-78
2023/01/08 11:54:57;;;;;;;3.55;2.33;;;;;;;-14.83;76.32;102143.50;10433018;28;20415;-79
2023/01/08 12:00:07;;;;;;;4.43;2.70;;;;;;;-14.82;76.54;102132.88;10435143;28;20419;-80
2023/01/08 12:05:30;;;;;;;9.27;3.25;;;;;;;-14.79;76.41;102132.69;10459457;28;20076;-81
2023/01/08 12:10:53;;;;;;;3.55;2.22;;;;;;;-14.75;76.17;102128.13;10440591;28;20049;-79
2023/01/08 12:16:22;;;;;;;3.75;2.25;;;;;;;-14.71;76.00;102100.69;10432257;28;20061;-79
2023/01/08 12:21:31;;;;;;;10.93;4.20;;;;;;;-14.72;77.00;102104.25;10457479;28;20033;-81
2023/01/08 12:26:49;;;;;;;5.45;2.70;;;;;;;-14.69;76.16;102104.94;10424860;28;20048;-78
2023/01/08 12:32:11;;;;;;;1.73;1.63;;;;;;;-14.68;76.88;102106.63;10441581;28;20046;-80
2023/01/08 12:37:45;;;;;;;5.73;3.43;;;;;;;-14.65;76.70;102082.75;10430278;28;20041;-86
2023/01/08 12:42:47;;;;;;;4.63;2.22;;;;;;;-14.64;76.75;102070.44;10443976;28;20050;-77
2023/01/08 12:48:06;;;;;;;3.22;1.45;;;;;;;-14.62;76.59;102084.38;10440106;28;20046;-79
2023/01/08 12:53:08;;;;;;;4.10;2.08;;;;;;;-14.52;76.47;102085.59;10445710;28;20064;-81
2023/01/08 12:58:25;;;;;;;1.30;0.85;;;;;;;-14.47;76.46;102086.16;10422855;28;20041;-81
2023/01/08 13:03:28;;;;;;;5.25;3.08;;;;;;;-14.41;76.45;102096.31;10434929;28;20516;-85
2023/01/08 13:08:34;;;;;;;3.38;1.73;;;;;;;-14.41;76.91;102083.16;10426804;28;20514;-82
2023/01/08 13:13:40;;;;;;;5.75;1.95;;;;;;;-14.38;76.44;102083.00;10424936;28;20052;-79
2023/01/08 13:18:57;;;;;;;2.25;1.52;;;;;;;-14.31;75.95;102092.25;10426591;28;20041;-80
2023/01/08 13:24:20;;;;;;;5.25;3.20;;;;;;;-14.23;75.36;102072.50;10408397;28;20037;-81
2023/01/08 13:29:37;;;;;;;4.93;2.72;;;;;;;-14.22;75.11;102066.34;10419999;28;20048;-80
2023/01/08 13:34:41;;;;;;;5.45;2.90;;;;;;;-14.20;75.38;102051.28;10441256;28;20587;-80
2023/01/08 13:39:44;;;;;;;4.20;1.92;;;;;;;-14.20;75.42;102046.84;10419133;28;20052;-77
2023/01/08 13:44:57;;;;;;;3.58;2.00;;;;;;;-14.19;75.09;102061.72;10431014;28;20064;-77
2023/01/08 13:50:03;;;;;;;5.50;2.38;;;;;;;-14.19;75.61;102055.59;10440470;28;20049;-77
2023/01/08 13:55:13;;;;;;;1.85;1.23;;;;;;;-14.21;75.62;102049.56;10424168;28;20050;-81
2023/01/08 14:00:24;;;;;;;1.80;1.65;;;;;;;-14.26;75.97;102030.50;10432337;28;20037;-78
2023/01/08 14:05:29;;;;;;;6.28;1.90;;;;;;;-14.28;76.67;102045.56;10424766;28;20410;-77
2023/01/08 14:10:31;;;;;;;6.65;2.80;;;;;;;-14.28;76.23;102032.38;10442586;28;20635;-78
2023/01/08 14:15:34;;;;;;;5.80;2.30;;;;;;;-14.34;76.53;102044.13;10408084;28;20068;-77
2023/01/08 14:20:38;;;;;;;2.30;1.48;;;;;;;-14.38;76.97;102040.84;10444082;28;20041;-78
2023/01/08 14:25:41;;;;;;;6.22;2.00;;;;;;;-14.38;76.87;102043.47;10436718;28;20041;-79
2023/01/08 14:30:48;;;;;;;5.90;2.60;;;;;;;-14.36;76.84;102046.88;10423827;28;20553;-78
2023/01/08 14:35:50;;;;;;;5.72;2.28;;;;;;;-14.32;77.77;102026.44;10448156;28;20049;-78
2023/01/08 14:40:57;;;;;;;1.60;1.13;;;;;;;-14.31;77.79;102023.72;10429791;28;20049;-81
2023/01/08 14:46:02;;;;;;;4.65;2.63;;;;;;;-14.31;77.42;102030.78;10452613;28;20033;-80
2023/01/08 14:51:07;;;;;;;4.68;2.38;;;;;;;-14.31;77.31;102026.34;10435811;28;20053;-79
2023/01/08 14:56:15;;;;;;;2.03;1.80;;;;;;;-14.31;77.07;102034.25;10445780;28;20061;-79
2023/01/08 15:01:28;;;;;;;2.42;1.67;;;;;;;-14.30;76.99;102027.22;10430026;28;20044;-79
2023/01/08 15:06:31;;;;;;;3.50;2.03;;;;;;;-14.32;77.22;102022.03;10430643;28;20037;-87
2023/01/08 15:11:48;;;;;;;4.28;1.65;;;;;;;-14.29;77.54;102017.50;10424571;28;20060;-81
2023/01/08 15:16:53;;;;;;;6.10;2.47;;;;;;;-14.11;76.81;102012.03;10444788;28;20045;-81
2023/01/08 15:21:58;;;;;;;3.97;2.53;;;;;;;-13.94;75.95;102026.03;10426409;28;20045;-85
2023/01/08 15:27:08;;;;;;;0.82;0.73;;;;;;;-14.01;75.59;102009.72;10444007;28;20419;-79
2023/01/08 15:32:13;;;;;;;1.98;1.60;;;;;;;-14.13;75.52;102011.28;10413631;28;20060;-79
2023/01/08 15:37:15;;;;;;;1.73;1.23;;;;;;;-14.23;76.03;102006.59;10446399;28;20522;-79
2023/01/08 15:47:41;;;;;;;2.03;0.98;;;;;;;-14.14;76.69;102021.91;10410163;28;20412;-77
2023/01/08 15:52:43;;;;;;;3.88;2.50;;;;;;;-14.28;76.19;102006.88;10433899;28;20033;-77
2023/01/08 15:57:46;;;;;;;3.10;1.38;;;;;;;-14.28;76.27;101998.13;10444682;28;20041;-79
2023/01/08 16:02:50;;;;;;;2.80;1.27;;;;;;;-14.37;76.50;102003.00;10415483;28;20042;-80
2023/01/08 16:07:52;;;;;;;5.68;2.08;;;;;;;-14.34;76.66;102013.34;10419324;28;20068;-76
2023/01/08 16:12:54;;;;;;;3.85;2.00;;;;;;;-14.36;76.13;102020.50;10411261;28;20535;-72
2023/01/08 16:17:58;;;;;;;2.08;0.80;;;;;;;-14.39;76.69;102014.56;10429108;28;20049;-82
2023/01/08 16:23:00;;;;;;;6.32;3.28;;;;;;;-14.40;76.95;102029.53;10432442;28;20054;-80
2023/01/08 16:28:02;;;;;;;7.45;3.30;;;;;;;-14.44;76.73;102033.28;10439746;28;20034;-76
2023/01/08 16:33:05;;;;;;;4.30;2.15;;;;;;;-14.46;77.48;102018.50;10446168;28;20066;-78
2023/01/08 16:38:09;;;;;;;3.88;1.67;;;;;;;-14.43;77.43;102007.78;10443355;28;20046;-75
2023/01/08 16:43:11;;;;;;;1.90;1.70;;;;;;;-14.46;77.41;102024.63;10410754;28;20052;-77
2023/01/08 16:48:14;;;;;;;2.70;2.17;;;;;;;-14.49;77.08;102021.31;10441565;28;20424;-77
2023/01/08 16:53:16;;;;;;;4.25;2.17;;;;;;;-14.52;77.08;102000.41;10443107;28;20057;-78
2023/01/08 16:58:18;;;;;;;3.63;2.13;;;;;;;-14.55;77.73;102009.34;10443722;28;20044;-74
2023/01/08 17:03:21;;;;;;;2.17;1.35;;;;;;;-14.55;77.81;101993.53;10425263;28;20045;-76
2023/01/08 17:08:26;;;;;;;4.68;2.13;;;;;;;-14.58;77.42;102009.47;10443174;28;20559;-79
2023/01/08 17:13:28;;;;;;;6.40;3.13;;;;;;;-14.59;78.15;101999.88;10441600;28;20044;-79
2023/01/08 17:18:30;;;;;;;5.32;2.70;;;;;;;-14.59;78.25;102013.06;10445398;28;20045;-84
2023/01/08 17:23:32;;;;;;;6.05;2.65;;;;;;;-14.60;78.16;102002.59;10452792;28;20046;-87
2023/01/08 17:28:35;;;;;;;2.13;1.15;;;;;;;-14.64;78.63;101988.75;10449221;28;20385;-88
2023/01/08 17:33:38;;;;;;;5.07;2.55;;;;;;;-14.67;77.98;101992.41;10444239;28;20056;-85
2023/01/08 17:38:45;;;;;;;2.88;1.60;;;;;;;-14.65;78.79;101984.44;10440218;28;20050;-83
2023/01/08 17:43:47;;;;;;;5.30;2.72;;;;;;;-14.63;78.47;101974.66;10435426;28;20408;-82
2023/01/08 17:48:49;;;;;;;4.75;2.22;;;;;;;-14.59;78.39;101976.16;10448813;28;20052;-84
2023/01/08 17:53:52;;;;;;;4.30;1.90;;;;;;;-14.54;78.91;101962.75;10449817;28;20040;-83
2023/01/08 17:58:54;;;;;;;2.35;1.33;;;;;;;-14.52;78.39;101966.16;10452269;28;20037;-84
2023/01/08 18:03:56;;;;;;;2.50;2.00;;;;;;;-14.53;78.63;101967.94;10443673;28;20053;-82
2023/01/08 18:08:59;;;;;;;4.10;2.03;;;;;;;-14.49;79.15;101990.53;10434953;28;20040;-73
2023/01/08 18:14:02;;;;;;;4.00;2.67;;;;;;;-14.43;79.11;101974.31;10427715;28;20048;-74
2023/01/08 18:19:04;;;;;;;3.17;1.95;;;;;;;-14.39;78.83;101969.75;10433078;28;20049;-74
2023/01/08 18:24:07;;;;;;;1.38;1.10;;;;;;;-14.38;78.33;101942.47;10441740;28;20140;-73
2023/01/08 18:29:09;;;;;;;3.85;2.05;;;;;;;-14.35;78.36;101956.31;10442933;28;20408;-74
2023/01/08 18:34:13;;;;;;;3.58;1.92;;;;;;;-14.33;78.53;101950.94;10443622;28;20053;-73
2023/01/08 18:39:15;;;;;;;6.18;3.15;;;;;;;-14.33;78.89;101958.84;10424880;28;20544;-77
2023/01/08 18:44:18;;;;;;;2.42;1.35;;;;;;;-14.33;78.12;101938.59;10418895;28;20439;-77
2023/01/08 18:49:22;;;;;;;5.95;2.50;;;;;;;-14.28;78.13;101953.31;10419378;28;20050;-77
2023/01/08 18:54:24;;;;;;;3.90;1.90;;;;;;;-14.24;77.90;101928.44;10385754;28;20516;-77
2023/01/08 18:59:26;;;;;;;1.80;1.70;;;;;;;-14.22;78.35;101919.53;10406567;28;20048;-76
2023/01/08 19:04:28;;;;;;;4.88;2.67;;;;;;;-14.24;78.04;101917.91;10439257;28;20053;-77
2023/01/08 19:09:30;;;;;;;4.53;2.08;;;;;;;-14.23;77.45;101930.16;10437719;28;20045;-81
2023/01/08 19:14:33;;;;;;;5.90;2.38;;;;;;;-14.28;77.63;101924.31;10440567;28;20124;-74
2023/01/08 19:19:35;;;;;;;2.10;1.40;;;;;;;-14.28;77.33;101901.41;10437957;28;20038;-74
2023/01/08 19:24:37;;;;;;;2.28;1.42;;;;;;;-14.29;78.05;101909.44;10448231;28;20424;-74
2023/01/08 19:29:41;;;;;;;3.15;1.83;;;;;;;-14.32;78.12;101913.09;10446444;28;20400;-74
2023/01/08 19:34:44;;;;;;;3.72;1.27;;;;;;;-14.32;77.85;101908.66;10432323;28;20045;-74
2023/01/08 19:39:46;;;;;;;1.23;1.15;;;;;;;-14.33;77.98;101914.03;10445463;28;20538;-75
2023/01/08 19:44:49;;;;;;;5.72;1.67;;;;;;;-14.33;78.11;101927.22;10448180;28;20062;-76
2023/01/08 19:49:52;;;;;;;3.75;2.22;;;;;;;-14.34;78.38;101925.53;10446858;28;20041;-76
2023/01/08 19:54:56;;;;;;;8.23;2.42;;;;;;;-14.38;77.99;101916.09;10445687;28;20049;-74
2023/01/08 19:59:58;;;;;;;2.97;2.33;;;;;;;-14.42;77.58;101915.41;10448376;28;20052;-74
2023/01/08 20:05:01;;;;;;;5.15;2.10;;;;;;;-14.41;77.62;101924.16;10448769;28;20057;-77
2023/01/08 20:10:04;;;;;;;2.40;1.70;;;;;;;-14.38;77.51;101919.59;10447070;28;20052;-76
2023/01/08 20:15:07;;;;;;;2.05;1.17;;;;;;;-14.36;77.33;101901.03;10442796;28;20053;-76
2023/01/08 20:20:10;;;;;;;7.35;3.05;;;;;;;-14.34;78.14;101907.06;10447663;28;20034;-74
2023/01/08 20:25:12;;;;;;;3.72;2.10;;;;;;;-14.35;77.22;101911.50;10446302;28;20068;-76
2023/01/08 20:30:15;;;;;;;3.25;1.90;;;;;;;-14.34;77.81;101921.09;10437461;28;20038;-74
2023/01/08 20:35:23;;;;;;;6.07;2.50;;;;;;;-14.38;78.03;101932.75;10444004;28;20053;-74
2023/01/08 20:40:25;;;;;;;3.78;1.77;;;;;;;-14.37;77.67;101928.34;10445815;28;20417;-77
2023/01/08 20:45:28;;;;;;;2.88;1.63;;;;;;;-14.33;77.22;101908.75;10412926;28;20041;-78
2023/01/08 20:50:31;;;;;;;5.70;2.50;;;;;;;-14.30;78.17;101895.41;10445166;28;20033;-77
2023/01/08 20:55:35;;;;;;;4.93;2.10;;;;;;;-14.31;77.70;101910.38;10447438;28;20546;-78
2023/01/08 21:00:39;;;;;;;1.58;0.98;;;;;;;-14.28;77.75;101898.78;10440539;28;20053;-75
2023/01/08 21:05:41;;;;;;;2.67;1.48;;;;;;;-14.23;78.24;101890.59;10443311;28;20048;-79
2023/01/08 21:10:44;;;;;;;4.40;2.10;;;;;;;-14.26;77.96;101874.97;10441871;28;20036;-74
2023/01/08 21:15:47;;;;;;;3.13;1.75;;;;;;;-14.24;77.89;101875.72;10439627;28;20041;-76
2023/01/08 21:20:49;;;;;;;4.70;2.40;;;;;;;-14.24;77.69;101889.75;10422139;28;20048;-76
2023/01/08 21:25:57;;;;;;;2.58;1.58;;;;;;;-14.24;77.76;101883.63;10428400;28;20041;-75
2023/01/08 21:31:20;;;;;;;4.20;1.75;;;;;;;-14.23;78.08;101882.69;10444387;28;20046;-77
2023/01/08 21:36:27;;;;;;;1.85;1.52;;;;;;;-14.21;78.29;101875.56;10441411;28;20133;-74
2023/01/08 21:47:36;;;;;;;;;;;;;;;-14.10;78.87;101876.59;10440780;28;20045;-75
2023/01/08 21:58:03;;;;;;;3.08;2.20;;;;;;;-14.04;79.05;101859.56;10426613;28;20045;-74
2023/01/08 22:03:06;;;;;;;6.32;2.70;;;;;;;-14.00;79.00;101863.72;10444264;28;20049;-78
2023/01/08 22:08:34;;;;;;;2.88;1.60;;;;;;;-13.95;78.88;101827.34;10424201;28;20061;-76
2023/01/08 22:13:38;;;;;;;5.90;2.85;;;;;;;-13.92;79.46;101826.31;10434150;28;20045;-80
2023/01/08 22:18:40;;;;;;;6.13;0.73;;;;;;;-13.88;80.13;101825.16;10442595;28;20033;-79
2023/01/08 22:23:43;;;;;;;2.20;1.23;;;;;;;-13.89;80.09;101818.19;10442956;28;20568;-77
2023/01/08 22:28:50;;;;;;;3.80;1.88;;;;;;;-13.88;80.83;101818.13;10437494;28;20037;-79
2023/01/08 22:33:53;;;;;;;3.58;1.92;;;;;;;-13.87;81.17;101833.03;10428687;28;20061;-79
2023/01/08 22:38:56;;;;;;;6.13;2.03;;;;;;;-13.83;81.36;101833.66;10414286;28;20072;-77
2023/01/08 22:43:58;;;;;;;2.00;1.00;;;;;;;-13.77;81.66;101826.22;10439539;28;20057;-82
2023/01/08 22:49:01;;;;;;;1.23;0.90;;;;;;;-13.73;82.14;101829.50;10435364;28;20519;-78
2023/01/08 22:54:03;;;;;;;2.20;1.23;;;;;;;-13.74;81.67;101826.00;10442301;28;20053;-77
2023/01/08 22:59:10;;;;;;;3.22;1.27;;;;;;;-13.71;82.21;101814.41;10445034;28;20030;-77
2023/01/08 23:04:37;;;;;;;2.40;1.45;;;;;;;-13.64;82.48;101820.19;10414063;28;20058;-78
2023/01/08 23:09:41;;;;;;;8.52;2.85;;;;;;;-13.60;82.13;101822.53;10408781;28;20512;-82
2023/01/08 23:14:45;;;;;;;2.78;1.70;;;;;;;-13.58;82.14;101820.63;10416742;28;20068;-79
2023/01/08 23:19:48;;;;;;;4.45;2.33;;;;;;;-13.58;82.67;101822.41;10449727;28;20589;-78
2023/01/08 23:24:50;;;;;;;2.03;1.65;;;;;;;-13.57;83.32;101806.47;10447077;28;20056;-77